sensor_id;sensor_type;location;lat;lon;timestamp;pressure;altitude;pressure_sealevel;temperature;humidity
21826;BME280;11075;47.944;11.776;2023-07-13T00:01:53;94779.25;;;10.22;85.06
21826;BME280;11075;47.944;11.776;2023-07-13T00:04:22;94772.25;;;10.29;82.97
21826;BME280;11075;47.944;11.776;2023-07-13T00:06:52;94758.06;;;10.20;83.08
21826;BME280;11075;47.944;11.776;2023-07-13T00:09:20;94762.56;;;9.62;89.85
21826;BME280;11075;47.944;11.776;2023-07-13T00:11:56;94774.34;;;9.49;91.65
21826;BME280;11075;47.944;11.776;2023-07-13T00:14:25;94764.75;;;9.18;93.08
21826;BME280;11075;47.944;11.776;2023-07-13T00:16:52;94770.81;;;9.36;91.57
21826;BME280;11075;47.944;11.776;2023-07-13T00:19:19;94760.50;;;9.80;88.15
21826;BME280;11075;47.944;11.776;2023-07-13T00:21:46;94762.66;;;10.20;83.39
21826;BME280;11075;47.944;11.776;2023-07-13T00:24:18;94758.97;;;10.24;82.93
21826;BME280;11075;47.944;11.776;2023-07-13T00:26:51;94772.00;;;9.68;87.31
21826;BME280;11075;47.944;11.776;2023-07-13T00:29:18;94763.53;;;10.11;83.91
21826;BME280;11075;47.944;11.776;2023-07-13T00:31:45;94772.06;;;10.59;80.11
21826;BME280;11075;47.944;11.776;2023-07-13T00:34:12;94774.88;;;9.84;84.51
21826;BME280;11075;47.944;11.776;2023-07-13T00:36:39;94776.94;;;9.99;83.34
21826;BME280;11075;47.944;11.776;2023-07-13T00:39:06;94773.09;;;9.46;89.12
21826;BME280;11075;47.944;11.776;2023-07-13T00:41:33;94783.94;;;9.59;88.35
21826;BME280;11075;47.944;11.776;2023-07-13T00:44:03;94772.78;;;9.69;87.18
21826;BME280;11075;47.944;11.776;2023-07-13T00:46:33;94783.25;;;9.41;88.84
21826;BME280;11075;47.944;11.776;2023-07-13T00:49:04;94777.38;;;9.68;88.04
21826;BME280;11075;47.944;11.776;2023-07-13T00:54:16;94783.81;;;9.05;90.85
21826;BME280;11075;47.944;11.776;2023-07-13T00:56:45;94794.53;;;8.84;96.26
21826;BME280;11075;47.944;11.776;2023-07-13T00:59:15;94794.66;;;9.17;93.13
21826;BME280;11075;47.944;11.776;2023-07-13T01:01:44;94797.34;;;9.67;87.74
21826;BME280;11075;47.944;11.776;2023-07-13T01:04:11;94785.13;;;9.70;87.96
21826;BME280;11075;47.944;11.776;2023-07-13T01:06:40;94778.44;;;9.55;88.94
21826;BME280;11075;47.944;11.776;2023-07-13T01:09:08;94777.13;;;9.61;87.86
21826;BME280;11075;47.944;11.776;2023-07-13T01:11:36;94778.53;;;9.38;89.60
21826;BME280;11075;47.944;11.776;2023-07-13T01:14:04;94769.75;;;9.91;83.57
21826;BME280;11075;47.944;11.776;2023-07-13T01:16:33;94765.72;;;9.97;84.38
21826;BME280;11075;47.944;11.776;2023-07-13T01:19:01;94771.06;;;9.23;89.16
21826;BME280;11075;47.944;11.776;2023-07-13T01:21:32;94762.06;;;9.39;88.39
21826;BME280;11075;47.944;11.776;2023-07-13T01:24:00;94750.22;;;9.61;86.75
21826;BME280;11075;47.944;11.776;2023-07-13T01:26:28;94746.22;;;10.33;78.68
21826;BME280;11075;47.944;11.776;2023-07-13T01:28:55;94747.88;;;9.60;85.82
21826;BME280;11075;47.944;11.776;2023-07-13T01:31:23;94739.13;;;9.63;83.36
21826;BME280;11075;47.944;11.776;2023-07-13T01:33:50;94736.81;;;9.73;83.35
21826;BME280;11075;47.944;11.776;2023-07-13T01:36:19;94735.91;;;9.48;84.62
21826;BME280;11075;47.944;11.776;2023-07-13T01:38:48;94732.50;;;9.60;82.91
21826;BME280;11075;47.944;11.776;2023-07-13T01:41:14;94738.47;;;9.45;85.09
21826;BME280;11075;47.944;11.776;2023-07-13T01:43:41;94743.13;;;9.36;85.44
21826;BME280;11075;47.944;11.776;2023-07-13T01:46:08;94750.94;;;9.29;85.99
21826;BME280;11075;47.944;11.776;2023-07-13T01:48:42;94757.41;;;9.28;85.26
21826;BME280;11075;47.944;11.776;2023-07-13T01:51:09;94761.69;;;9.29;85.57
21826;BME280;11075;47.944;11.776;2023-07-13T01:53:36;94751.31;;;9.39;84.22
21826;BME280;11075;47.944;11.776;2023-07-13T01:56:03;94742.72;;;9.04;86.38
21826;BME280;11075;47.944;11.776;2023-07-13T01:58:30;94743.50;;;9.05;87.53
21826;BME280;11075;47.944;11.776;2023-07-13T02:00:57;94759.72;;;8.87;89.65
21826;BME280;11075;47.944;11.776;2023-07-13T02:03:23;94757.25;;;8.74;87.81
21826;BME280;11075;47.944;11.776;2023-07-13T02:05:50;94761.41;;;9.22;83.96
21826;BME280;11075;47.944;11.776;2023-07-13T02:08:17;94767.16;;;8.91;88.31
21826;BME280;11075;47.944;11.776;2023-07-13T02:10:46;94767.19;;;8.82;89.14
21826;BME280;11075;47.944;11.776;2023-07-13T02:13:12;94777.50;;;9.01;87.20
21826;BME280;11075;47.944;11.776;2023-07-13T02:15:39;94778.09;;;8.77;89.45
21826;BME280;11075;47.944;11.776;2023-07-13T02:18:09;94778.53;;;8.87;88.26
21826;BME280;11075;47.944;11.776;2023-07-13T02:20:36;94783.34;;;8.65;89.98
21826;BME280;11075;47.944;11.776;2023-07-13T02:23:02;94782.66;;;8.76;89.66
21826;BME280;11075;47.944;11.776;2023-07-13T02:25:33;94787.69;;;8.48;92.08
21826;BME280;11075;47.944;11.776;2023-07-13T02:28:00;94795.38;;;8.59;91.32
21826;BME280;11075;47.944;11.776;2023-07-13T02:30:27;94804.66;;;8.23;95.03
21826;BME280;11075;47.944;11.776;2023-07-13T02:32:57;94796.88;;;8.85;90.57
21826;BME280;11075;47.944;11.776;2023-07-13T02:35:24;94806.00;;;9.23;86.61
21826;BME280;11075;47.944;11.776;2023-07-13T02:37:51;94810.50;;;8.72;89.69
21826;BME280;11075;47.944;11.776;2023-07-13T02:40:18;94815.59;;;8.65;91.61
21826;BME280;11075;47.944;11.776;2023-07-13T02:42:45;94820.13;;;8.73;89.71
21826;BME280;11075;47.944;11.776;2023-07-13T02:45:12;94820.84;;;8.52;92.87
21826;BME280;11075;47.944;11.776;2023-07-13T02:47:41;94819.16;;;8.77;90.15
21826;BME280;11075;47.944;11.776;2023-07-13T02:50:10;94820.13;;;8.17;95.84
21826;BME280;11075;47.944;11.776;2023-07-13T02:52:37;94818.59;;;8.63;90.16
21826;BME280;11075;47.944;11.776;2023-07-13T02:55:04;94824.75;;;8.64;90.28
21826;BME280;11075;47.944;11.776;2023-07-13T02:57:31;94821.41;;;8.20;94.84
21826;BME280;11075;47.944;11.776;2023-07-13T03:00:02;94830.25;;;8.12;97.12
21826;BME280;11075;47.944;11.776;2023-07-13T03:02:32;94818.56;;;8.08;98.07
21826;BME280;11075;47.944;11.776;2023-07-13T03:05:01;94830.41;;;8.79;91.45
21826;BME280;11075;47.944;11.776;2023-07-13T03:07:27;94831.41;;;8.58;93.14
21826;BME280;11075;47.944;11.776;2023-07-13T03:09:56;94833.16;;;9.00;88.55
21826;BME280;11075;47.944;11.776;2023-07-13T03:12:27;94831.72;;;9.03;88.95
21826;BME280;11075;47.944;11.776;2023-07-13T03:14:54;94833.84;;;8.88;91.06
21826;BME280;11075;47.944;11.776;2023-07-13T03:17:21;94833.81;;;8.97;90.54
21826;BME280;11075;47.944;11.776;2023-07-13T03:19:49;94832.94;;;8.76;90.38
21826;BME280;11075;47.944;11.776;2023-07-13T03:22:18;94831.13;;;8.50;92.99
21826;BME280;11075;47.944;11.776;2023-07-13T03:24:45;94838.63;;;8.83;91.08
21826;BME280;11075;47.944;11.776;2023-07-13T03:27:12;94842.16;;;8.58;94.00
21826;BME280;11075;47.944;11.776;2023-07-13T03:29:42;94839.97;;;8.98;91.64
21826;BME280;11075;47.944;11.776;2023-07-13T03:32:10;94856.78;;;8.77;94.90
21826;BME280;11075;47.944;11.776;2023-07-13T03:34:37;94855.78;;;8.35;96.29
21826;BME280;11075;47.944;11.776;2023-07-13T03:37:05;94843.81;;;7.89;99.54
21826;BME280;11075;47.944;11.776;2023-07-13T03:39:32;94851.44;;;8.69;92.91
21826;BME280;11075;47.944;11.776;2023-07-13T03:41:59;94849.16;;;8.33;96.59
21826;BME280;11075;47.944;11.776;2023-07-13T03:44:27;94855.47;;;7.59;100.00
21826;BME280;11075;47.944;11.776;2023-07-13T03:46:55;94853.16;;;8.82;92.98
21826;BME280;11075;47.944;11.776;2023-07-13T03:49:22;94854.28;;;8.72;92.72
21826;BME280;11075;47.944;11.776;2023-07-13T03:51:49;94860.28;;;9.16;88.70
21826;BME280;11075;47.944;11.776;2023-07-13T03:54:19;94874.16;;;9.27;87.32
21826;BME280;11075;47.944;11.776;2023-07-13T03:56:46;94883.81;;;9.57;86.23
21826;BME280;11075;47.944;11.776;2023-07-13T03:59:15;94874.66;;;8.82;92.38
21826;BME280;11075;47.944;11.776;2023-07-13T04:01:43;94870.88;;;8.66;90.89
21826;BME280;11075;47.944;11.776;2023-07-13T04:04:11;94880.72;;;9.08;89.39
21826;BME280;11075;47.944;11.776;2023-07-13T04:06:38;94872.03;;;8.47;93.64
21826;BME280;11075;47.944;11.776;2023-07-13T04:09:05;94876.97;;;8.28;95.83
21826;BME280;11075;47.944;11.776;2023-07-13T04:11:32;94872.16;;;8.60;94.40
21826;BME280;11075;47.944;11.776;2023-07-13T04:14:00;94880.91;;;8.39;94.21
21826;BME280;11075;47.944;11.776;2023-07-13T04:16:27;94878.19;;;8.56;92.86
21826;BME280;11075;47.944;11.776;2023-07-13T04:18:55;94887.22;;;7.83;98.44
21826;BME280;11075;47.944;11.776;2023-07-13T04:21:27;94888.78;;;7.67;100.00
21826;BME280;11075;47.944;11.776;2023-07-13T04:23:55;94895.28;;;8.17;95.42
21826;BME280;11075;47.944;11.776;2023-07-13T04:26:22;94891.34;;;8.23;93.35
21826;BME280;11075;47.944;11.776;2023-07-13T04:28:50;94879.06;;;8.78;89.31
21826;BME280;11075;47.944;11.776;2023-07-13T04:31:18;94885.13;;;9.13;85.64
21826;BME280;11075;47.944;11.776;2023-07-13T04:33:45;94887.19;;;9.07;85.74
21826;BME280;11075;47.944;11.776;2023-07-13T04:36:17;94893.50;;;9.11;85.87
21826;BME280;11075;47.944;11.776;2023-07-13T04:38:44;94893.44;;;8.91;86.37
21826;BME280;11075;47.944;11.776;2023-07-13T04:41:12;94898.25;;;9.14;83.32
21826;BME280;11075;47.944;11.776;2023-07-13T04:43:39;94893.19;;;9.13;84.71
21826;BME280;11075;47.944;11.776;2023-07-13T04:46:08;94901.31;;;8.96;86.96
21826;BME280;11075;47.944;11.776;2023-07-13T04:48:37;94893.94;;;9.22;84.23
21826;BME280;11075;47.944;11.776;2023-07-13T04:51:04;94902.78;;;9.23;84.74
21826;BME280;11075;47.944;11.776;2023-07-13T04:53:31;94906.41;;;9.27;84.80
21826;BME280;11075;47.944;11.776;2023-07-13T04:55:58;94902.69;;;9.10;84.48
21826;BME280;11075;47.944;11.776;2023-07-13T04:58:26;94909.41;;;9.63;81.38
21826;BME280;11075;47.944;11.776;2023-07-13T05:00:59;94917.16;;;8.71;86.98
21826;BME280;11075;47.944;11.776;2023-07-13T05:03:27;94914.59;;;9.68;80.83
21826;BME280;11075;47.944;11.776;2023-07-13T05:05:58;94908.28;;;8.97;85.81
21826;BME280;11075;47.944;11.776;2023-07-13T05:08:26;94920.31;;;9.29;82.38
21826;BME280;11075;47.944;11.776;2023-07-13T05:10:53;94921.03;;;9.46;79.12
21826;BME280;11075;47.944;11.776;2023-07-13T05:13:20;94909.34;;;9.04;83.89
21826;BME280;11075;47.944;11.776;2023-07-13T05:15:56;94910.13;;;9.72;78.38
21826;BME280;11075;47.944;11.776;2023-07-13T05:18:23;94907.25;;;9.77;78.63
21826;BME280;11075;47.944;11.776;2023-07-13T05:21:08;94911.19;;;9.80;77.43
21826;BME280;11075;47.944;11.776;2023-07-13T05:23:36;94914.41;;;9.94;77.16
21826;BME280;11075;47.944;11.776;2023-07-13T05:26:03;94918.78;;;9.57;79.20
21826;BME280;11075;47.944;11.776;2023-07-13T05:28:36;94923.44;;;9.69;79.42
21826;BME280;11075;47.944;11.776;2023-07-13T05:31:04;94913.84;;;9.59;80.20
21826;BME280;11075;47.944;11.776;2023-07-13T05:33:31;94916.03;;;9.28;82.45
21826;BME280;11075;47.944;11.776;2023-07-13T05:35:58;94920.03;;;9.51;80.47
21826;BME280;11075;47.944;11.776;2023-07-13T05:38:27;94927.22;;;9.38;82.33
21826;BME280;11075;47.944;11.776;2023-07-13T05:40:55;94917.34;;;9.60;79.81
21826;BME280;11075;47.944;11.776;2023-07-13T05:43:23;94928.91;;;9.51;79.94
21826;BME280;11075;47.944;11.776;2023-07-13T05:45:53;94925.28;;;9.56;80.86
21826;BME280;11075;47.944;11.776;2023-07-13T05:48:20;94912.66;;;9.10;84.19
21826;BME280;11075;47.944;11.776;2023-07-13T05:50:47;94921.81;;;9.09;83.01
21826;BME280;11075;47.944;11.776;2023-07-13T05:53:15;94919.94;;;9.39;80.42
21826;BME280;11075;47.944;11.776;2023-07-13T05:55:43;94929.09;;;9.46;79.81
21826;BME280;11075;47.944;11.776;2023-07-13T05:58:11;94930.84;;;9.42;81.79
21826;BME280;11075;47.944;11.776;2023-07-13T06:00:38;94932.53;;;9.17;85.74
21826;BME280;11075;47.944;11.776;2023-07-13T06:03:06;94930.09;;;9.71;82.11
21826;BME280;11075;47.944;11.776;2023-07-13T06:05:34;94927.63;;;10.29;76.43
21826;BME280;11075;47.944;11.776;2023-07-13T06:08:03;94928.13;;;10.22;77.41
21826;BME280;11075;47.944;11.776;2023-07-13T06:10:34;94926.47;;;9.67;80.30
21826;BME280;11075;47.944;11.776;2023-07-13T06:13:02;94931.78;;;9.76;81.55
21826;BME280;11075;47.944;11.776;2023-07-13T06:15:29;94946.00;;;9.56;85.53
21826;BME280;11075;47.944;11.776;2023-07-13T06:17:56;94937.75;;;10.32;79.05
21826;BME280;11075;47.944;11.776;2023-07-13T06:20:23;94940.28;;;10.49;78.97
21826;BME280;11075;47.944;11.776;2023-07-13T06:22:50;94942.44;;;10.56;80.63
21826;BME280;11075;47.944;11.776;2023-07-13T06:25:17;94951.41;;;10.47;76.88
21826;BME280;11075;47.944;11.776;2023-07-13T06:27:44;94951.16;;;10.40;78.41
21826;BME280;11075;47.944;11.776;2023-07-13T06:30:11;94949.47;;;10.69;77.92
21826;BME280;11075;47.944;11.776;2023-07-13T06:32:47;94946.50;;;10.29;77.89
21826;BME280;11075;47.944;11.776;2023-07-13T06:35:14;94952.63;;;10.71;75.86
21826;BME280;11075;47.944;11.776;2023-07-13T06:37:41;94958.41;;;10.19;82.08
21826;BME280;11075;47.944;11.776;2023-07-13T06:40:08;94958.91;;;10.75;80.76
21826;BME280;11075;47.944;11.776;2023-07-13T06:42:35;94958.66;;;10.68;73.37
21826;BME280;11075;47.944;11.776;2023-07-13T06:45:02;94968.66;;;10.05;77.70
21826;BME280;11075;47.944;11.776;2023-07-13T06:47:29;94968.25;;;9.94;77.74
21826;BME280;11075;47.944;11.776;2023-07-13T06:50:00;94968.94;;;10.54;81.20
21826;BME280;11075;47.944;11.776;2023-07-13T06:52:27;94978.75;;;10.37;80.48
21826;BME280;11075;47.944;11.776;2023-07-13T06:54:53;94980.44;;;9.92;83.28
21826;BME280;11075;47.944;11.776;2023-07-13T06:57:21;94981.03;;;10.27;80.29
21826;BME280;11075;47.944;11.776;2023-07-13T06:59:48;94981.09;;;10.39;80.20
21826;BME280;11075;47.944;11.776;2023-07-13T07:02:15;94980.88;;;10.02;80.71
21826;BME280;11075;47.944;11.776;2023-07-13T07:04:41;94975.59;;;9.85;82.30
21826;BME280;11075;47.944;11.776;2023-07-13T07:07:08;94972.34;;;10.21;81.90
21826;BME280;11075;47.944;11.776;2023-07-13T07:09:35;94970.47;;;10.42;79.43
21826;BME280;11075;47.944;11.776;2023-07-13T07:12:02;94970.69;;;10.08;84.59
21826;BME280;11075;47.944;11.776;2023-07-13T07:14:31;94957.00;;;10.42;79.21
21826;BME280;11075;47.944;11.776;2023-07-13T07:16:58;94962.09;;;11.22;78.14
21826;BME280;11075;47.944;11.776;2023-07-13T07:19:29;94964.19;;;11.04;77.35
21826;BME280;11075;47.944;11.776;2023-07-13T07:21:56;94964.41;;;10.99;76.92
21826;BME280;11075;47.944;11.776;2023-07-13T07:24:23;94969.34;;;10.97;78.27
21826;BME280;11075;47.944;11.776;2023-07-13T07:26:50;94971.38;;;11.00;79.21
21826;BME280;11075;47.944;11.776;2023-07-13T07:29:19;94979.53;;;9.88;79.29
21826;BME280;11075;47.944;11.776;2023-07-13T07:31:50;94977.22;;;11.02;78.12
21826;BME280;11075;47.944;11.776;2023-07-13T07:34:32;94985.59;;;10.05;82.35
21826;BME280;11075;47.944;11.776;2023-07-13T07:37:00;94994.47;;;9.76;84.91
21826;BME280;11075;47.944;11.776;2023-07-13T07:39:30;94992.09;;;10.25;80.00
21826;BME280;11075;47.944;11.776;2023-07-13T07:41:57;94992.16;;;10.16;78.62
21826;BME280;11075;47.944;11.776;2023-07-13T07:44:24;95001.06;;;9.88;82.43
21826;BME280;11075;47.944;11.776;2023-07-13T07:46:51;95000.81;;;10.01;78.88
21826;BME280;11075;47.944;11.776;2023-07-13T07:49:18;95015.31;;;10.59;77.08
21826;BME280;11075;47.944;11.776;2023-07-13T07:51:45;95020.63;;;9.97;81.54
21826;BME280;11075;47.944;11.776;2023-07-13T07:54:12;95028.75;;;9.88;83.63
21826;BME280;11075;47.944;11.776;2023-07-13T07:56:47;95029.78;;;10.34;77.10
21826;BME280;11075;47.944;11.776;2023-07-13T07:59:36;95017.94;;;9.67;80.70
21826;BME280;11075;47.944;11.776;2023-07-13T08:02:06;95025.69;;;9.98;78.91
21826;BME280;11075;47.944;11.776;2023-07-13T08:04:53;95016.50;;;10.50;79.38
21826;BME280;11075;47.944;11.776;2023-07-13T08:07:23;95022.25;;;9.60;76.64
21826;BME280;11075;47.944;11.776;2023-07-13T08:09:53;95026.25;;;10.42;76.80
21826;BME280;11075;47.944;11.776;2023-07-13T08:12:20;95031.81;;;10.37;76.88
21826;BME280;11075;47.944;11.776;2023-07-13T08:14:50;95031.19;;;10.94;75.31
21826;BME280;11075;47.944;11.776;2023-07-13T08:17:20;95032.19;;;9.97;77.75
21826;BME280;11075;47.944;11.776;2023-07-13T08:19:47;95035.75;;;10.60;77.23
21826;BME280;11075;47.944;11.776;2023-07-13T08:22:14;95036.22;;;10.62;75.62
21826;BME280;11075;47.944;11.776;2023-07-13T08:24:41;95039.94;;;9.99;81.57
21826;BME280;11075;47.944;11.776;2023-07-13T08:27:11;95039.31;;;10.52;78.67
21826;BME280;11075;47.944;11.776;2023-07-13T08:29:39;95035.06;;;10.22;80.63
21826;BME280;11075;47.944;11.776;2023-07-13T08:32:06;95036.75;;;10.35;76.93
21826;BME280;11075;47.944;11.776;2023-07-13T08:34:36;95043.06;;;10.39;73.41
21826;BME280;11075;47.944;11.776;2023-07-13T08:37:03;95037.91;;;9.96;78.03
21826;BME280;11075;47.944;11.776;2023-07-13T08:39:31;95040.97;;;10.15;76.57
21826;BME280;11075;47.944;11.776;2023-07-13T08:42:03;95037.25;;;10.28;77.29
21826;BME280;11075;47.944;11.776;2023-07-13T08:45:04;95042.19;;;10.26;76.29
21826;BME280;11075;47.944;11.776;2023-07-13T08:47:35;95033.72;;;10.36;76.08
21826;BME280;11075;47.944;11.776;2023-07-13T08:50:05;95051.28;;;10.13;82.53
21826;BME280;11075;47.944;11.776;2023-07-13T08:52:38;95056.84;;;10.37;77.73
21826;BME280;11075;47.944;11.776;2023-07-13T08:55:13;95058.22;;;9.84;79.32
21826;BME280;11075;47.944;11.776;2023-07-13T08:57:43;95069.31;;;9.28;81.72
21826;BME280;11075;47.944;11.776;2023-07-13T09:00:12;95071.22;;;9.82;82.04
21826;BME280;11075;47.944;11.776;2023-07-13T09:05:34;95080.72;;;8.64;81.94
21826;BME280;11075;47.944;11.776;2023-07-13T09:10:46;95078.63;;;7.47;86.16
21826;BME280;11075;47.944;11.776;2023-07-13T09:15:53;95074.41;;;7.55;77.38
21826;BME280;11075;47.944;11.776;2023-07-13T09:18:31;95085.34;;;7.14;84.76
21826;BME280;11075;47.944;11.776;2023-07-13T09:23:29;95077.38;;;8.41;77.40
21826;BME280;11075;47.944;11.776;2023-07-13T09:26:20;95070.69;;;8.13;72.78
21826;BME280;11075;47.944;11.776;2023-07-13T09:29:00;95072.56;;;9.59;69.76
21826;BME280;11075;47.944;11.776;2023-07-13T09:31:34;95074.88;;;7.97;78.94
21826;BME280;11075;47.944;11.776;2023-07-13T09:34:02;95068.41;;;8.89;74.39
21826;BME280;11075;47.944;11.776;2023-07-13T09:36:32;95071.88;;;8.90;77.30
21826;BME280;11075;47.944;11.776;2023-07-13T09:44:36;95063.97;;;8.59;82.54
21826;BME280;11075;47.944;11.776;2023-07-13T09:47:15;95069.50;;;8.97;76.40
21826;BME280;11075;47.944;11.776;2023-07-13T09:49:43;95067.00;;;8.92;76.57
21826;BME280;11075;47.944;11.776;2023-07-13T09:52:15;95075.66;;;8.71;80.68
21826;BME280;11075;47.944;11.776;2023-07-13T09:54:48;95070.16;;;8.94;75.10
21826;BME280;11075;47.944;11.776;2023-07-13T09:57:18;95076.88;;;9.34;76.37
21826;BME280;11075;47.944;11.776;2023-07-13T09:59:51;95073.88;;;9.36;73.96
21826;BME280;11075;47.944;11.776;2023-07-13T10:02:35;95070.44;;;9.18;73.58
21826;BME280;11075;47.944;11.776;2023-07-13T10:05:11;95070.44;;;9.18;73.07
21826;BME280;11075;47.944;11.776;2023-07-13T10:07:42;95076.72;;;9.31;76.37
21826;BME280;11075;47.944;11.776;2023-07-13T10:10:17;95088.53;;;9.64;75.88
21826;BME280;11075;47.944;11.776;2023-07-13T10:12:44;95091.44;;;9.33;74.98
21826;BME280;11075;47.944;11.776;2023-07-13T10:15:20;95098.25;;;9.22;79.65
21826;BME280;11075;47.944;11.776;2023-07-13T10:17:55;95098.03;;;9.62;72.54
21826;BME280;11075;47.944;11.776;2023-07-13T10:20:26;95102.81;;;9.39;76.53
21826;BME280;11075;47.944;11.776;2023-07-13T10:23:05;95107.63;;;8.90;78.65
21826;BME280;11075;47.944;11.776;2023-07-13T10:25:39;95112.22;;;9.79;74.35
21826;BME280;11075;47.944;11.776;2023-07-13T10:28:28;95112.53;;;9.78;73.51
21826;BME280;11075;47.944;11.776;2023-07-13T10:30:56;95107.16;;;10.16;69.77
21826;BME280;11075;47.944;11.776;2023-07-13T10:33:25;95106.94;;;9.92;71.78
21826;BME280;11075;47.944;11.776;2023-07-13T10:36:14;95111.38;;;10.34;68.05
21826;BME280;11075;47.944;11.776;2023-07-13T10:38:46;95111.78;;;10.45;68.41
21826;BME280;11075;47.944;11.776;2023-07-13T10:41:19;95110.31;;;10.98;67.19
21826;BME280;11075;47.944;11.776;2023-07-13T10:43:50;95102.00;;;11.24;64.37
21826;BME280;11075;47.944;11.776;2023-07-13T10:46:20;95109.75;;;10.42;65.03
21826;BME280;11075;47.944;11.776;2023-07-13T10:48:51;95126.09;;;9.99;70.24
21826;BME280;11075;47.944;11.776;2023-07-13T10:51:19;95111.38;;;11.05;64.17
21826;BME280;11075;47.944;11.776;2023-07-13T10:54:10;95108.41;;;11.64;61.39
21826;BME280;11075;47.944;11.776;2023-07-13T10:56:35;95116.69;;;11.14;62.65
21826;BME280;11075;47.944;11.776;2023-07-13T10:59:10;95115.25;;;11.95;58.82
21826;BME280;11075;47.944;11.776;2023-07-13T11:04:12;95108.72;;;11.84;56.51
21826;BME280;11075;47.944;11.776;2023-07-13T11:06:41;95114.63;;;10.90;55.21
21826;BME280;11075;47.944;11.776;2023-07-13T11:11:45;95113.09;;;11.88;54.76
21826;BME280;11075;47.944;11.776;2023-07-13T11:14:34;95114.56;;;11.98;53.56
21826;BME280;11075;47.944;11.776;2023-07-13T11:25:43;95113.00;;;11.97;52.64
21826;BME280;11075;47.944;11.776;2023-07-13T11:30:59;95111.22;;;14.17;46.82
21826;BME280;11075;47.944;11.776;2023-07-13T11:36:13;95097.75;;;13.89;47.74
21826;BME280;11075;47.944;11.776;2023-07-13T11:38:44;95089.56;;;13.42;47.89
21826;BME280;11075;47.944;11.776;2023-07-13T11:41:21;95074.59;;;14.39;45.68
21826;BME280;11075;47.944;11.776;2023-07-13T11:43:50;95077.03;;;15.79;42.77
21826;BME280;11075;47.944;11.776;2023-07-13T11:46:25;95081.50;;;15.68;41.50
21826;BME280;11075;47.944;11.776;2023-07-13T11:48:53;95071.41;;;15.69;41.53
21826;BME280;11075;47.944;11.776;2023-07-13T11:51:27;95065.63;;;14.89;43.20
21826;BME280;11075;47.944;11.776;2023-07-13T11:53:56;95066.63;;;13.24;48.02
21826;BME280;11075;47.944;11.776;2023-07-13T11:56:25;95045.94;;;15.54;42.08
21826;BME280;11075;47.944;11.776;2023-07-13T11:58:54;95054.44;;;14.56;44.34
21826;BME280;11075;47.944;11.776;2023-07-13T12:01:26;95045.72;;;16.35;41.81
21826;BME280;11075;47.944;11.776;2023-07-13T12:03:53;95062.47;;;15.91;37.76
21826;BME280;11075;47.944;11.776;2023-07-13T12:06:27;95074.19;;;14.91;36.04
21826;BME280;11075;47.944;11.776;2023-07-13T12:09:03;95057.91;;;16.71;35.89
21826;BME280;11075;47.944;11.776;2023-07-13T12:11:43;95062.38;;;15.42;37.49
21826;BME280;11075;47.944;11.776;2023-07-13T12:14:17;95069.94;;;14.40;37.87
21826;BME280;11075;47.944;11.776;2023-07-13T12:16:46;95073.88;;;15.54;36.13
21826;BME280;11075;47.944;11.776;2023-07-13T12:19:27;95037.56;;;16.08;35.39
21826;BME280;11075;47.944;11.776;2023-07-13T12:21:58;95022.03;;;15.21;38.16
21826;BME280;11075;47.944;11.776;2023-07-13T12:24:26;95077.25;;;16.66;33.38
21826;BME280;11075;47.944;11.776;2023-07-13T12:27:00;95046.50;;;16.62;33.10
21826;BME280;11075;47.944;11.776;2023-07-13T12:29:28;94989.13;;;16.44;37.59
21826;BME280;11075;47.944;11.776;2023-07-13T12:31:55;95047.25;;;15.21;34.38
21826;BME280;11075;47.944;11.776;2023-07-13T12:34:25;95058.16;;;16.36;35.39
21826;BME280;11075;47.944;11.776;2023-07-13T12:36:58;95057.81;;;16.64;33.59
21826;BME280;11075;47.944;11.776;2023-07-13T12:39:43;95063.59;;;16.36;32.94
21826;BME280;11075;47.944;11.776;2023-07-13T12:44:48;95023.22;;;16.38;36.50
21826;BME280;11075;47.944;11.776;2023-07-13T12:47:15;95016.84;;;15.54;38.01
21826;BME280;11075;47.944;11.776;2023-07-13T12:49:48;95026.06;;;14.18;38.50
21826;BME280;11075;47.944;11.776;2023-07-13T12:52:22;95029.19;;;13.26;38.80
21826;BME280;11075;47.944;11.776;2023-07-13T12:55:12;95043.41;;;17.64;35.21
21826;BME280;11075;47.944;11.776;2023-07-13T12:57:55;95028.19;;;16.06;37.46
21826;BME280;11075;47.944;11.776;2023-07-13T13:00:32;95013.91;;;14.63;37.28
21826;BME280;11075;47.944;11.776;2023-07-13T13:03:22;95011.78;;;15.11;38.72
21826;BME280;11075;47.944;11.776;2023-07-13T13:05:58;95008.78;;;14.97;39.09
21826;BME280;11075;47.944;11.776;2023-07-13T13:08:26;95032.69;;;14.72;38.10
21826;BME280;11075;47.944;11.776;2023-07-13T13:10:53;95024.25;;;14.22;40.57
21826;BME280;11075;47.944;11.776;2023-07-13T13:13:20;95020.94;;;13.97;38.75
21826;BME280;11075;47.944;11.776;2023-07-13T13:15:47;94998.47;;;15.94;39.90
21826;BME280;11075;47.944;11.776;2023-07-13T13:18:19;95010.06;;;14.64;39.38
21826;BME280;11075;47.944;11.776;2023-07-13T13:20:47;95023.97;;;15.85;38.31
21826;BME280;11075;47.944;11.776;2023-07-13T13:23:16;94999.09;;;16.93;37.65
21826;BME280;11075;47.944;11.776;2023-07-13T13:25:49;95005.56;;;16.81;37.56
21826;BME280;11075;47.944;11.776;2023-07-13T13:28:20;95008.50;;;15.02;37.25
21826;BME280;11075;47.944;11.776;2023-07-13T13:30:48;94998.34;;;14.60;41.24
21826;BME280;11075;47.944;11.776;2023-07-13T13:33:19;95008.13;;;13.79;41.63
21826;BME280;11075;47.944;11.776;2023-07-13T13:35:46;95014.53;;;14.21;43.06
21826;BME280;11075;47.944;11.776;2023-07-13T13:38:13;95014.88;;;15.51;39.66
21826;BME280;11075;47.944;11.776;2023-07-13T13:40:45;95019.09;;;17.07;37.72
21826;BME280;11075;47.944;11.776;2023-07-13T13:43:23;94991.13;;;16.77;38.89
21826;BME280;11075;47.944;11.776;2023-07-13T13:45:56;95015.53;;;17.37;36.08
21826;BME280;11075;47.944;11.776;2023-07-13T13:48:31;94992.38;;;17.16;39.99
21826;BME280;11075;47.944;11.776;2023-07-13T13:50:59;95027.41;;;15.17;38.86